createdAt,value
2022-11-05T00:00:37.719Z,99997.13
2022-11-05T00:03:23.375Z,99998.47
2022-11-05T00:06:12.049Z,100000.25
2022-11-05T00:08:59.224Z,99993.41
2022-11-05T00:11:46.315Z,99993.88
2022-11-05T00:14:32.166Z,99998.44
2022-11-05T00:16:59.169Z,100000.63
2022-11-05T00:19:26.083Z,99999.69
2022-11-05T00:22:11.856Z,99999.69
2022-11-05T00:24:57.301Z,100004.25
2022-11-05T00:27:24.199Z,100001.34
2022-11-05T00:29:51.155Z,100006.38
2022-11-05T00:32:18.197Z,100007.22
2022-11-05T00:34:45.210Z,100004.16
2022-11-05T00:37:12.393Z,100012.66
2022-11-05T00:39:39.426Z,100011.94
2022-11-05T00:42:25.237Z,100015.16
2022-11-05T00:45:01.416Z,100018.28
2022-11-05T00:47:51.997Z,100027.03
2022-11-05T00:50:21.472Z,100029.56
2022-11-05T00:53:02.184Z,100035.25
2022-11-05T00:55:41.130Z,100033.44
2022-11-05T00:58:11.698Z,100029.25
2022-11-05T01:00:41.949Z,100025.38
2022-11-05T01:03:12.943Z,100032.34
2022-11-05T01:05:42.904Z,100030.69
2022-11-05T01:08:10.940Z,100028.56
2022-11-05T01:10:53.593Z,100034.69
2022-11-05T01:13:23.258Z,100042.06
2022-11-05T01:15:51.440Z,100039.84
2022-11-05T01:18:19.576Z,100050.88
2022-11-05T01:20:46.868Z,100044.03
2022-11-05T01:23:14.127Z,100053.78
2022-11-05T01:25:44.733Z,100056.25
2022-11-05T01:28:12.013Z,100047.47
2022-11-05T01:30:40.246Z,100052.91
2022-11-05T01:33:07.292Z,100051.09
2022-11-05T01:35:34.259Z,100063.81
2022-11-05T01:38:01.205Z,100053.34
2022-11-05T01:40:31.099Z,100058.53
2022-11-05T01:42:58.175Z,100066.06
2022-11-05T01:45:28.999Z,100058.38
2022-11-05T01:48:09.488Z,100057.94
2022-11-05T01:50:44.790Z,100064.09
2022-11-05T01:53:29.557Z,100068.53
2022-11-05T01:56:03.056Z,100068.81
2022-11-05T01:58:36.100Z,100073.00
2022-11-05T02:01:03.043Z,100071.44
2022-11-05T02:03:31.055Z,100081.06
2022-11-05T02:06:01.027Z,100075.03
2022-11-05T02:08:56.119Z,100075.81
2022-11-05T02:11:23.148Z,100081.38
2022-11-05T02:13:50.600Z,100072.84
2022-11-05T02:16:32.476Z,100084.44
2022-11-05T02:19:11.996Z,100081.78
2022-11-05T02:22:12.713Z,100084.53
2022-11-05T02:24:57.597Z,100091.78
2022-11-05T02:27:44.365Z,100090.97
2022-11-05T02:30:35.769Z,100085.50
2022-11-05T02:33:25.741Z,100095.38
2022-11-05T02:36:06.976Z,100099.47
2022-11-05T02:38:52.027Z,100102.13
2022-11-05T02:41:30.401Z,100097.78
2022-11-05T02:44:26.652Z,100097.97
2022-11-05T02:47:17.882Z,100097.41
2022-11-05T02:49:58.019Z,100106.06
2022-11-05T02:53:08.511Z,100104.88
2022-11-05T02:55:59.596Z,100103.41
2022-11-05T02:58:30.621Z,100114.13
2022-11-05T03:00:59.225Z,100105.81
2022-11-05T03:03:43.301Z,100117.50
2022-11-05T03:06:41.832Z,100119.41
2022-11-05T03:09:22.550Z,100125.81
2022-11-05T03:11:55.514Z,100124.25
2022-11-05T03:14:43.982Z,100121.59
2022-11-05T03:17:27.162Z,100124.97
2022-11-05T03:20:08.828Z,100122.31
2022-11-05T03:22:43.483Z,100123.72
2022-11-05T03:25:17.848Z,100122.06
2022-11-05T03:27:47.819Z,100131.50
2022-11-05T03:30:19.113Z,100135.31
2022-11-05T03:32:51.209Z,100137.84
2022-11-05T03:35:26.428Z,100140.09
2022-11-05T03:38:01.518Z,100143.22
2022-11-05T03:40:33.652Z,100139.56
2022-11-05T03:43:03.151Z,100150.16
2022-11-05T03:45:37.196Z,100144.41
2022-11-05T03:48:06.485Z,100152.34
2022-11-05T03:50:44.919Z,100155.25
2022-11-05T03:53:28.129Z,100153.72
2022-11-05T03:56:03.052Z,100143.97
2022-11-05T03:58:32.103Z,100157.22
2022-11-05T04:01:04.344Z,100157.66
2022-11-05T04:03:36.619Z,100165.59
2022-11-05T04:06:24.671Z,100162.84
2022-11-05T04:09:10.149Z,100173.91
2022-11-05T04:11:55.832Z,100182.66
2022-11-05T04:14:22.882Z,100180.34
2022-11-05T04:17:09.693Z,100173.91
2022-11-05T04:20:00.425Z,100183.97
2022-11-05T04:22:48.442Z,100176.22
2022-11-05T04:25:17.145Z,100175.38
2022-11-05T04:27:44.909Z,100173.97
2022-11-05T04:30:19.111Z,100179.00
2022-11-05T04:33:16.532Z,100175.38
2022-11-05T04:35:48.739Z,100182.34
2022-11-05T04:38:20.057Z,100173.72
2022-11-05T04:40:48.345Z,100172.22
2022-11-05T04:43:18.675Z,100177.78
2022-11-05T04:45:46.427Z,100183.84
2022-11-05T04:48:13.740Z,100182.03
2022-11-05T04:50:40.649Z,100185.06
2022-11-05T04:53:07.833Z,100180.03
2022-11-05T04:55:35.014Z,100189.03
2022-11-05T04:58:01.995Z,100190.47
2022-11-05T05:00:29.104Z,100192.69
2022-11-05T05:02:56.020Z,100197.75
2022-11-05T05:05:23.255Z,100200.16
2022-11-05T05:07:50.271Z,100198.00
2022-11-05T05:10:17.502Z,100202.72
2022-11-05T05:12:44.424Z,100201.63
2022-11-05T05:15:11.375Z,100201.75
2022-11-05T05:17:38.426Z,100203.81
2022-11-05T05:20:24.339Z,100196.59
2022-11-05T05:22:53.179Z,100206.78
2022-11-05T05:25:20.865Z,100201.88
2022-11-05T05:27:47.743Z,100211.84
2022-11-05T05:30:14.753Z,100215.31
2022-11-05T05:32:41.644Z,100217.84
2022-11-05T05:35:09.100Z,100219.66
2022-11-05T05:37:36.128Z,100224.09
2022-11-05T05:40:03.238Z,100231.19
2022-11-05T05:42:30.738Z,100236.16
2022-11-05T05:44:57.591Z,100235.31
2022-11-05T05:47:24.521Z,100239.28
2022-11-05T05:49:51.483Z,100242.13
2022-11-05T05:52:18.345Z,100235.41
2022-11-05T05:54:45.410Z,100240.97
2022-11-05T05:57:12.382Z,100251.81
2022-11-05T05:59:39.322Z,100256.00
2022-11-05T06:02:06.520Z,100256.34
2022-11-05T06:04:33.562Z,100252.47
2022-11-05T06:07:00.566Z,100255.84
2022-11-05T06:09:27.543Z,100256.44
2022-11-05T06:11:54.466Z,100259.66
2022-11-05T06:14:21.395Z,100251.13
2022-11-05T06:16:48.370Z,100261.38
2022-11-05T06:19:15.326Z,100259.81
2022-11-05T06:21:42.360Z,100256.06
2022-11-05T06:24:09.257Z,100269.06
2022-11-05T06:26:36.164Z,100270.84
2022-11-05T06:29:03.133Z,100264.47
2022-11-05T06:31:30.034Z,100258.81
2022-11-05T06:33:57.033Z,100257.25
2022-11-05T06:36:23.960Z,100264.09
2022-11-05T06:38:50.871Z,100261.56
2022-11-05T06:41:17.885Z,100271.41
2022-11-05T06:43:44.783Z,100268.63
2022-11-05T06:46:12.167Z,100277.78
2022-11-05T06:48:39.613Z,100273.59
2022-11-05T06:51:08.244Z,100271.66
2022-11-05T06:53:35.880Z,100278.28
2022-11-05T06:56:05.420Z,100280.34
2022-11-05T06:58:33.080Z,100291.16
2022-11-05T07:01:05.485Z,100295.97
2022-11-05T07:03:32.490Z,100290.94
2022-11-05T07:06:00.864Z,100293.91
2022-11-05T07:08:32.554Z,100299.44
2022-11-05T07:11:00.092Z,100299.19
2022-11-05T07:13:27.273Z,100302.91
2022-11-05T07:15:54.305Z,100305.75
2022-11-05T07:18:21.352Z,100299.13
2022-11-05T07:20:49.322Z,100294.75
2022-11-05T07:23:17.037Z,100301.84
2022-11-05T07:25:45.033Z,100296.19
2022-11-05T07:28:12.129Z,100304.66
2022-11-05T07:30:39.058Z,100314.34
2022-11-05T07:33:06.104Z,100307.69
2022-11-05T07:35:33.137Z,100316.81
2022-11-05T07:38:00.244Z,100318.38
2022-11-05T07:40:29.233Z,100318.50
2022-11-05T07:42:58.718Z,100321.09
2022-11-05T07:45:27.401Z,100331.44
2022-11-05T07:48:03.079Z,100328.78
2022-11-05T07:50:33.060Z,100328.06
2022-11-05T07:53:10.194Z,100326.13
2022-11-05T07:55:38.071Z,100335.13
2022-11-05T07:58:04.955Z,100335.41
2022-11-05T08:00:33.040Z,100338.25
2022-11-05T08:03:12.850Z,100337.75
2022-11-05T08:05:44.707Z,100339.28
2022-11-05T08:08:14.464Z,100347.31
2022-11-05T08:10:42.231Z,100336.81
2022-11-05T08:13:09.977Z,100344.25
2022-11-05T08:15:37.344Z,100347.63
2022-11-05T08:18:06.991Z,100343.16
2022-11-05T08:20:34.822Z,100344.72
2022-11-05T08:23:01.733Z,100339.16
2022-11-05T08:25:28.903Z,100338.16
2022-11-05T08:28:01.263Z,100343.22
2022-11-05T08:30:29.371Z,100350.47
2022-11-05T08:32:58.986Z,100345.41
2022-11-05T08:35:27.299Z,100345.41
2022-11-05T08:38:03.028Z,100345.88
2022-11-05T08:40:31.841Z,100350.41
2022-11-05T08:43:00.308Z,100353.16
2022-11-05T08:45:27.813Z,100357.22
2022-11-05T08:48:05.717Z,100357.84
2022-11-05T08:50:33.866Z,100348.88
2022-11-05T08:53:01.243Z,100358.72
2022-11-05T08:55:28.332Z,100356.78
2022-11-05T08:58:00.163Z,100356.06
2022-11-05T09:00:29.523Z,100350.47
2022-11-05T09:02:59.883Z,100345.63
2022-11-05T09:05:28.029Z,100341.84
2022-11-05T09:08:00.516Z,100340.97
2022-11-05T09:10:28.784Z,100348.66
2022-11-05T09:12:56.032Z,100339.34
2022-11-05T09:15:23.586Z,100344.91
2022-11-05T09:17:51.186Z,100355.00
2022-11-05T09:20:18.590Z,100347.56
2022-11-05T09:22:46.642Z,100352.59
2022-11-05T09:25:15.322Z,100349.53
2022-11-05T09:27:43.174Z,100350.22
2022-11-05T09:30:11.692Z,100349.13
2022-11-05T09:32:42.200Z,100352.88
2022-11-05T09:35:09.697Z,100350.69
2022-11-05T09:37:37.312Z,100355.25
2022-11-05T09:40:05.590Z,100359.63
2022-11-05T09:42:41.346Z,100355.72
2022-11-05T09:45:20.573Z,100357.09
2022-11-05T09:47:59.333Z,100356.56
2022-11-05T09:50:33.837Z,100360.19
2022-11-05T09:53:01.952Z,100375.41
2022-11-05T09:55:34.070Z,100363.78
2022-11-05T09:58:06.678Z,100369.00
2022-11-05T10:00:34.445Z,100366.03
2022-11-05T10:03:08.439Z,100369.97
2022-11-05T10:05:37.923Z,100379.34
2022-11-05T10:08:38.728Z,100377.22
2022-11-05T10:11:10.635Z,100378.78
2022-11-05T10:13:48.513Z,100378.63
2022-11-05T10:16:33.627Z,100376.97
2022-11-05T10:19:13.630Z,100375.28
2022-11-05T10:24:28.771Z,100389.56
2022-11-05T10:26:56.779Z,100392.38
2022-11-05T10:29:30.320Z,100381.84
2022-11-05T10:31:59.959Z,100382.66
2022-11-05T10:34:32.323Z,100381.81
2022-11-05T10:36:59.585Z,100387.97
2022-11-05T10:39:29.976Z,100378.22
2022-11-05T10:42:27.758Z,100388.09
2022-11-05T10:45:20.645Z,100383.63
2022-11-05T10:48:01.276Z,100378.59
2022-11-05T10:50:30.145Z,100385.56
2022-11-05T10:53:05.589Z,100383.31
2022-11-05T10:55:38.289Z,100386.34
2022-11-05T10:58:29.203Z,100401.44
2022-11-05T11:01:07.079Z,100391.41
2022-11-05T11:04:16.215Z,100402.28
2022-11-05T11:06:55.062Z,100399.06
2022-11-05T11:09:28.313Z,100404.50
2022-11-05T11:12:19.086Z,100401.97
2022-11-05T11:15:04.790Z,100411.75
2022-11-05T11:17:32.729Z,100407.00
2022-11-05T11:20:29.634Z,100409.56
2022-11-05T11:23:22.936Z,100410.50
2022-11-05T11:26:00.778Z,100412.28
2022-11-05T11:28:35.580Z,100415.50
2022-11-05T11:31:02.358Z,100413.09
2022-11-05T11:33:31.703Z,100430.47
2022-11-05T11:36:00.170Z,100424.44
2022-11-05T11:38:31.470Z,100429.03
2022-11-05T11:41:29.880Z,100430.00
2022-11-05T11:44:02.688Z,100435.06
2022-11-05T11:46:33.103Z,100426.13
2022-11-05T11:49:01.004Z,100435.31
2022-11-05T11:51:49.487Z,100427.88
2022-11-05T11:54:28.639Z,100430.25
2022-11-05T11:56:56.167Z,100429.69
2022-11-05T11:59:53.847Z,100428.13
2022-11-05T12:02:43.330Z,100423.41
2022-11-05T12:05:35.372Z,100421.66
2022-11-05T12:08:11.538Z,100428.13
2022-11-05T12:11:18.415Z,100441.00
2022-11-05T12:14:00.451Z,100434.28
2022-11-05T12:16:39.521Z,100441.41
2022-11-05T12:19:49.499Z,100441.91
2022-11-05T12:22:36.631Z,100435.03
2022-11-05T12:25:41.021Z,100437.84
2022-11-05T12:28:17.076Z,100432.97
2022-11-05T12:31:05.457Z,100436.13
2022-11-05T12:34:07.830Z,100437.25
2022-11-05T12:36:45.369Z,100437.75
2022-11-05T12:39:35.280Z,100436.91
2022-11-05T12:42:14.825Z,100435.22
2022-11-05T12:45:00.070Z,100440.41
2022-11-05T12:47:46.188Z,100443.44
2022-11-05T12:50:48.101Z,100443.94
2022-11-05T12:53:15.207Z,100442.72
2022-11-05T12:55:48.534Z,100449.47
2022-11-05T12:58:21.913Z,100453.06
2022-11-05T13:00:56.683Z,100448.25
2022-11-05T13:03:32.647Z,100454.28
2022-11-05T13:06:07.761Z,100447.81
2022-11-05T13:09:06.963Z,100458.88
2022-11-05T13:11:39.933Z,100451.91
2022-11-05T13:14:16.030Z,100454.81
2022-11-05T13:17:07.641Z,100457.44
2022-11-05T13:19:56.596Z,100446.88
2022-11-05T13:22:34.662Z,100448.31
2022-11-05T13:25:13.216Z,100460.50
2022-11-05T13:28:15.864Z,100464.69
2022-11-05T13:30:47.831Z,100458.78
2022-11-05T13:33:36.655Z,100466.31
2022-11-05T13:36:37.098Z,100478.25
2022-11-05T13:39:26.131Z,100488.84
2022-11-05T13:42:12.539Z,100480.75
2022-11-05T13:44:43.931Z,100480.50
2022-11-05T13:47:14.186Z,100485.22
2022-11-05T13:49:41.164Z,100489.78
2022-11-05T13:52:22.106Z,100490.78
2022-11-05T13:55:14.093Z,100495.56
2022-11-05T13:58:05.364Z,100500.16
2022-11-05T14:00:44.928Z,100499.22
2022-11-05T14:03:20.910Z,100497.88
2022-11-05T14:06:07.847Z,100502.56
2022-11-05T14:08:46.025Z,100504.38
2022-11-05T14:11:27.157Z,100508.34
2022-11-05T14:14:01.606Z,100496.16
2022-11-05T14:16:47.273Z,100505.81
2022-11-05T14:19:20.454Z,100506.19
2022-11-05T14:21:53.365Z,100517.03
2022-11-05T14:24:23.158Z,100514.19
2022-11-05T14:27:02.338Z,100518.25
2022-11-05T14:29:49.005Z,100518.25
2022-11-05T14:32:18.996Z,100512.72
2022-11-05T14:34:54.786Z,100510.19
2022-11-05T14:37:39.586Z,100518.84
2022-11-05T14:40:42.417Z,100509.31
2022-11-05T14:43:27.257Z,100504.28
2022-11-05T14:46:01.769Z,100522.13
2022-11-05T14:48:47.158Z,100525.63
2022-11-05T14:51:31.116Z,100521.38
2022-11-05T14:54:06.060Z,100526.41
2022-11-05T14:56:45.757Z,100523.75
2022-11-05T14:59:24.900Z,100522.59
2022-11-05T15:01:57.393Z,100522.34
2022-11-05T15:04:29.879Z,100527.28
2022-11-05T15:07:04.708Z,100528.72
2022-11-05T15:10:19.377Z,100533.31
2022-11-05T15:13:01.868Z,100527.53
2022-11-05T15:15:38.758Z,100526.66
2022-11-05T15:18:11.917Z,100531.84
2022-11-05T15:20:43.655Z,100527.16
2022-11-05T15:23:17.268Z,100528.72
2022-11-05T15:26:02.309Z,100535.00
2022-11-05T15:28:48.326Z,100538.34
2022-11-05T15:31:15.246Z,100541.72
2022-11-05T15:33:49.299Z,100554.41
2022-11-05T15:36:26.688Z,100548.00
2022-11-05T15:39:23.067Z,100557.19
2022-11-05T15:41:43.089Z,100548.88
2022-11-05T15:44:28.438Z,100551.16
2022-11-05T15:47:16.659Z,100549.09
2022-11-05T15:49:46.357Z,100554.41
2022-11-05T15:52:18.715Z,100565.97
2022-11-05T15:54:45.988Z,100558.88
2022-11-05T15:57:29.350Z,100553.22
2022-11-05T15:59:58.940Z,100554.06
2022-11-05T16:02:31.106Z,100552.25
2022-11-05T16:05:01.759Z,100548.75
2022-11-05T16:07:30.409Z,100552.97
2022-11-05T16:10:00.086Z,100554.88
2022-11-05T16:12:37.928Z,100557.19
2022-11-05T16:15:10.712Z,100558.03
2022-11-05T16:17:37.659Z,100559.47
2022-11-05T16:20:38.925Z,100555.00
2022-11-05T16:23:21.813Z,100552.97
2022-11-05T16:25:50.629Z,100552.47
2022-11-05T16:28:29.183Z,100549.09
2022-11-05T16:31:04.635Z,100556.81
2022-11-05T16:33:43.447Z,100551.00
2022-11-05T16:36:10.645Z,100554.06
2022-11-05T16:38:37.695Z,100556.09
2022-11-05T16:41:04.933Z,100556.22
2022-11-05T16:43:32.153Z,100554.91
2022-11-05T16:46:01.814Z,100554.78
2022-11-05T16:48:28.920Z,100555.13
2022-11-05T16:50:56.462Z,100548.88
2022-11-05T16:53:23.892Z,100561.03
2022-11-05T16:55:53.078Z,100558.03
2022-11-05T16:58:23.351Z,100563.81
2022-11-05T17:01:02.941Z,100563.81
2022-11-05T17:03:31.144Z,100562.59
2022-11-05T17:05:58.807Z,100557.91
2022-11-05T17:08:26.007Z,100565.38
2022-11-05T17:10:53.464Z,100561.50
2022-11-05T17:13:20.912Z,100572.50
2022-11-05T17:15:50.782Z,100566.47
2022-11-05T17:18:19.458Z,100568.88
2022-11-05T17:20:49.958Z,100572.59
2022-11-05T17:23:22.789Z,100566.81
2022-11-05T17:25:52.994Z,100573.00
2022-11-05T17:28:21.381Z,100571.75
2022-11-05T17:30:54.897Z,100568.16
2022-11-05T17:33:23.394Z,100562.88
2022-11-05T17:35:51.592Z,100571.53
2022-11-05T17:38:19.916Z,100575.88
2022-11-05T17:40:47.621Z,100574.31
2022-11-05T17:43:15.809Z,100569.94
2022-11-05T17:45:46.018Z,100572.75
2022-11-05T17:48:13.820Z,100566.22
2022-11-05T17:50:49.271Z,100574.88
2022-11-05T17:53:18.977Z,100571.03
2022-11-05T17:55:47.314Z,100580.22
2022-11-05T17:58:14.961Z,100577.56
2022-11-05T18:00:44.004Z,100584.28
2022-11-05T18:03:12.542Z,100589.59
2022-11-05T18:05:41.189Z,100583.59
2022-11-05T18:08:09.518Z,100585.03
2022-11-05T18:10:37.819Z,100592.13
2022-11-05T18:13:05.686Z,100590.56
2022-11-05T18:15:33.377Z,100596.59
2022-11-05T18:18:00.503Z,100586.09
2022-11-05T18:20:27.622Z,100587.19
2022-11-05T18:22:54.857Z,100587.66
2022-11-05T18:25:21.990Z,100582.38
2022-11-05T18:27:49.095Z,100590.56
2022-11-05T18:30:16.219Z,100586.94
2022-11-05T18:32:44.770Z,100589.38
2022-11-05T18:35:16.331Z,100584.19
2022-11-05T18:37:43.522Z,100587.91
2022-11-05T18:40:11.457Z,100589.38
2022-11-05T18:42:39.159Z,100594.53
2022-11-05T18:45:07.543Z,100579.50
2022-11-05T18:47:34.846Z,100584.91
2022-11-05T18:50:02.755Z,100590.34
2022-11-05T18:52:32.015Z,100593.81
2022-11-05T18:54:59.861Z,100588.63
2022-11-05T18:57:27.832Z,100589.47
2022-11-05T18:59:55.237Z,100587.78
2022-11-05T19:02:22.609Z,100586.22
2022-11-05T19:05:13.904Z,100584.56
2022-11-05T19:07:38.567Z,100586.00
2022-11-05T19:10:06.632Z,100596.59
2022-11-05T19:12:34.319Z,100594.69
2022-11-05T19:15:02.947Z,100607.19
2022-11-05T19:17:33.354Z,100603.94
2022-11-05T19:20:01.838Z,100604.78
2022-11-05T19:22:31.127Z,100605.50
2022-11-05T19:24:58.242Z,100612.13
2022-11-05T19:27:25.559Z,100618.41
2022-11-05T19:29:53.535Z,100622.34
2022-11-05T19:32:21.434Z,100621.88
2022-11-05T19:34:50.808Z,100627.69
2022-11-05T19:37:20.052Z,100626.25
2022-11-05T19:39:47.218Z,100628.41
2022-11-05T19:42:14.397Z,100630.44
2022-11-05T19:44:43.140Z,100634.16
2022-11-05T19:47:10.442Z,100624.03
2022-11-05T19:49:37.524Z,100635.25
2022-11-05T19:52:04.838Z,100627.66
2022-11-05T19:54:31.901Z,100632.00
2022-11-05T19:56:58.987Z,100630.78
2022-11-05T19:59:26.223Z,100637.41
2022-11-05T20:01:53.340Z,100630.63
2022-11-05T20:04:20.440Z,100633.63
2022-11-05T20:06:47.504Z,100641.47
2022-11-05T20:09:21.608Z,100631.22
2022-11-05T20:11:52.578Z,100636.28
2022-11-05T20:14:20.112Z,100644.00
2022-11-05T20:21:20.928Z,100642.56
2022-11-05T20:23:48.004Z,100650.03
2022-11-05T20:26:15.982Z,100648.34
2022-11-05T20:28:43.949Z,100646.88
2022-11-05T20:31:14.056Z,100643.03
2022-11-05T20:33:41.780Z,100638.47
2022-11-05T20:36:13.763Z,100636.91
2022-11-05T20:38:41.344Z,100638.47
2022-11-05T20:41:12.758Z,100640.16
2022-11-05T20:43:44.265Z,100633.75
2022-11-05T20:46:14.345Z,100630.97
2022-11-05T20:48:41.963Z,100633.84
2022-11-05T20:51:14.433Z,100642.06
2022-11-05T20:53:41.871Z,100634.00
2022-11-05T20:56:15.322Z,100634.00
2022-11-05T20:58:42.203Z,100635.69
2022-11-05T21:01:11.956Z,100637.03
2022-11-05T21:03:39.203Z,100643.03
2022-11-05T21:06:06.536Z,100633.63
2022-11-05T21:08:33.858Z,100644.50
2022-11-05T21:11:01.267Z,100640.06
2022-11-05T21:13:28.924Z,100633.75
2022-11-05T21:15:59.143Z,100638.19
2022-11-05T21:18:28.942Z,100638.19
2022-11-05T21:20:56.502Z,100641.22
2022-11-05T21:23:23.604Z,100634.38
2022-11-05T21:25:50.586Z,100630.75
2022-11-05T21:28:18.760Z,100636.53
2022-11-05T21:30:46.724Z,100634.09
2022-11-05T21:33:15.521Z,100640.69
2022-11-05T21:35:45.164Z,100646.50
2022-11-05T21:38:15.131Z,100649.22
2022-11-05T21:40:42.905Z,100636.09
2022-11-05T21:43:10.727Z,100643.75
2022-11-05T21:45:42.021Z,100656.38
2022-11-05T21:48:10.358Z,100651.56
2022-11-05T21:51:00.065Z,100647.97
2022-11-05T21:53:45.510Z,100651.09
2022-11-05T21:56:39.531Z,100650.16
2022-11-05T21:59:24.893Z,100646.69
2022-11-05T22:02:01.404Z,100653.50
2022-11-05T22:04:31.237Z,100660.31
2022-11-05T22:06:59.261Z,100659.47
2022-11-05T22:09:26.761Z,100655.13
2022-11-05T22:11:54.333Z,100660.31
2022-11-05T22:14:21.919Z,100656.88
2022-11-05T22:16:48.923Z,100650.84
2022-11-05T22:19:16.163Z,100652.66
2022-11-05T22:21:43.277Z,100652.03
2022-11-05T22:24:10.435Z,100651.91
2022-11-05T22:26:38.537Z,100662.56
2022-11-05T22:29:06.645Z,100666.44
2022-11-05T22:31:36.482Z,100656.81
2022-11-05T22:34:05.107Z,100669.59
2022-11-05T22:36:33.398Z,100677.56
2022-11-05T22:39:00.746Z,100677.81
2022-11-05T22:41:27.891Z,100677.59
2022-11-05T22:43:55.824Z,100682.94
2022-11-05T22:46:26.472Z,100686.31
2022-11-05T22:48:54.527Z,100680.78
2022-11-05T22:51:30.083Z,100692.63
2022-11-05T22:53:58.724Z,100687.47
2022-11-05T22:56:30.545Z,100686.94
2022-11-05T22:58:58.207Z,100686.94
2022-11-05T23:01:26.395Z,100689.00
2022-11-05T23:03:56.875Z,100695.59
2022-11-05T23:06:48.542Z,100701.50
2022-11-05T23:09:40.763Z,100710.84
2022-11-05T23:12:19.578Z,100705.00
2022-11-05T23:14:46.971Z,100701.53
2022-11-05T23:22:00.540Z,100708.28
2022-11-05T23:24:27.492Z,100703.09
2022-11-05T23:26:54.560Z,100701.94
2022-11-05T23:29:25.050Z,100706.25
2022-11-05T23:32:10.982Z,100699.78
2022-11-05T23:34:38.597Z,100703.25
2022-11-05T23:37:25.265Z,100698.25
2022-11-05T23:39:52.303Z,100698.03
2022-11-05T23:42:37.759Z,100694.34
2022-11-05T23:45:24.629Z,100696.22
2022-11-05T23:48:10.901Z,100692.97
2022-11-05T23:50:40.023Z,100686.41
2022-11-05T23:53:08.245Z,100690.84
2022-11-05T23:55:35.822Z,100697.19
2022-11-05T23:58:03.158Z,100691.09
